sensor_id;sensor_type;location;lat;lon;timestamp;P1;durP1;ratioP1;P2;durP2;ratioP2
2944;SDS011;1482;51.398;7.128;2023-08-06T00:01:41;6.50;;;4.53;;
2944;SDS011;1482;51.398;7.128;2023-08-06T00:04:07;8.00;;;3.50;;
2944;SDS011;1482;51.398;7.128;2023-08-06T00:06:32;5.70;;;4.17;;
2944;SDS011;1482;51.398;7.128;2023-08-06T00:08:58;4.87;;;4.10;;
2944;SDS011;1482;51.398;7.128;2023-08-06T00:11:23;3.93;;;3.63;;
2944;SDS011;1482;51.398;7.128;2023-08-06T00:13:49;7.43;;;3.70;;
2944;SDS011;1482;51.398;7.128;2023-08-06T00:16:14;4.00;;;3.70;;
2944;SDS011;1482;51.398;7.128;2023-08-06T00:18:40;3.77;;;3.47;;
2944;SDS011;1482;51.398;7.128;2023-08-06T00:21:05;10.00;;;4.90;;
2944;SDS011;1482;51.398;7.128;2023-08-06T00:23:31;4.40;;;4.00;;
2944;SDS011;1482;51.398;7.128;2023-08-06T00:25:57;9.23;;;3.60;;
2944;SDS011;1482;51.398;7.128;2023-08-06T00:28:22;4.23;;;3.93;;
2944;SDS011;1482;51.398;7.128;2023-08-06T00:30:54;6.47;;;3.40;;
2944;SDS011;1482;51.398;7.128;2023-08-06T00:33:20;3.90;;;3.50;;
2944;SDS011;1482;51.398;7.128;2023-08-06T00:35:49;5.90;;;3.20;;
2944;SDS011;1482;51.398;7.128;2023-08-06T00:38:15;5.70;;;4.23;;
2944;SDS011;1482;51.398;7.128;2023-08-06T00:40:41;5.20;;;3.53;;
2944;SDS011;1482;51.398;7.128;2023-08-06T00:43:07;4.63;;;4.20;;
2944;SDS011;1482;51.398;7.128;2023-08-06T00:45:33;4.53;;;3.83;;
2944;SDS011;1482;51.398;7.128;2023-08-06T00:48:01;4.80;;;3.87;;
2944;SDS011;1482;51.398;7.128;2023-08-06T00:50:28;5.53;;;3.47;;
2944;SDS011;1482;51.398;7.128;2023-08-06T00:52:54;3.63;;;3.33;;
2944;SDS011;1482;51.398;7.128;2023-08-06T00:55:20;10.03;;;4.10;;
2944;SDS011;1482;51.398;7.128;2023-08-06T00:57:46;4.30;;;4.00;;
2944;SDS011;1482;51.398;7.128;2023-08-06T01:00:11;4.33;;;3.47;;
2944;SDS011;1482;51.398;7.128;2023-08-06T01:02:37;8.90;;;3.50;;
2944;SDS011;1482;51.398;7.128;2023-08-06T01:05:03;3.70;;;3.40;;
2944;SDS011;1482;51.398;7.128;2023-08-06T01:12:51;4.20;;;3.90;;
2944;SDS011;1482;51.398;7.128;2023-08-06T01:15:24;3.60;;;3.30;;
2944;SDS011;1482;51.398;7.128;2023-08-06T01:17:56;4.20;;;3.90;;
2944;SDS011;1482;51.398;7.128;2023-08-06T01:20:27;5.03;;;3.93;;
2944;SDS011;1482;51.398;7.128;2023-08-06T01:22:54;4.73;;;4.30;;
2944;SDS011;1482;51.398;7.128;2023-08-06T01:25:19;7.77;;;4.50;;
2944;SDS011;1482;51.398;7.128;2023-08-06T01:30:17;12.20;;;4.70;;
2944;SDS011;1482;51.398;7.128;2023-08-06T01:32:49;4.60;;;3.63;;
2944;SDS011;1482;51.398;7.128;2023-08-06T01:35:19;5.77;;;4.50;;
2944;SDS011;1482;51.398;7.128;2023-08-06T01:37:45;4.83;;;3.00;;
2944;SDS011;1482;51.398;7.128;2023-08-06T01:40:12;5.97;;;4.77;;
2944;SDS011;1482;51.398;7.128;2023-08-06T01:42:38;6.83;;;3.83;;
2944;SDS011;1482;51.398;7.128;2023-08-06T01:45:07;5.40;;;5.00;;
2944;SDS011;1482;51.398;7.128;2023-08-06T01:47:34;5.27;;;3.90;;
2944;SDS011;1482;51.398;7.128;2023-08-06T01:49:59;3.50;;;3.20;;
2944;SDS011;1482;51.398;7.128;2023-08-06T01:52:25;6.63;;;4.20;;
2944;SDS011;1482;51.398;7.128;2023-08-06T01:54:51;10.87;;;4.80;;
2944;SDS011;1482;51.398;7.128;2023-08-06T01:57:17;5.70;;;3.27;;
2944;SDS011;1482;51.398;7.128;2023-08-06T01:59:43;4.40;;;4.00;;
2944;SDS011;1482;51.398;7.128;2023-08-06T02:02:08;3.67;;;3.37;;
2944;SDS011;1482;51.398;7.128;2023-08-06T02:04:34;4.37;;;3.70;;
2944;SDS011;1482;51.398;7.128;2023-08-06T02:06:59;7.53;;;3.57;;
2944;SDS011;1482;51.398;7.128;2023-08-06T02:09:25;4.63;;;4.00;;
2944;SDS011;1482;51.398;7.128;2023-08-06T02:11:50;4.43;;;3.80;;
2944;SDS011;1482;51.398;7.128;2023-08-06T02:14:16;6.73;;;4.53;;
2944;SDS011;1482;51.398;7.128;2023-08-06T02:16:42;4.17;;;3.50;;
2944;SDS011;1482;51.398;7.128;2023-08-06T02:19:07;5.00;;;4.60;;
2944;SDS011;1482;51.398;7.128;2023-08-06T02:21:33;4.50;;;3.77;;
2944;SDS011;1482;51.398;7.128;2023-08-06T02:23:58;4.20;;;3.80;;
2944;SDS011;1482;51.398;7.128;2023-08-06T02:26:24;4.50;;;3.43;;
2944;SDS011;1482;51.398;7.128;2023-08-06T02:28:49;4.43;;;4.00;;
2944;SDS011;1482;51.398;7.128;2023-08-06T02:31:15;3.50;;;3.20;;
2944;SDS011;1482;51.398;7.128;2023-08-06T02:33:40;6.53;;;4.23;;
2944;SDS011;1482;51.398;7.128;2023-08-06T02:36:06;5.53;;;3.10;;
2944;SDS011;1482;51.398;7.128;2023-08-06T02:38:32;3.80;;;3.43;;
2944;SDS011;1482;51.398;7.128;2023-08-06T02:40:58;4.17;;;3.77;;
2944;SDS011;1482;51.398;7.128;2023-08-06T02:43:23;3.80;;;3.50;;
2944;SDS011;1482;51.398;7.128;2023-08-06T02:45:49;4.90;;;3.80;;
2944;SDS011;1482;51.398;7.128;2023-08-06T02:48:14;3.90;;;3.57;;
2944;SDS011;1482;51.398;7.128;2023-08-06T02:50:40;3.90;;;3.50;;
2944;SDS011;1482;51.398;7.128;2023-08-06T02:53:09;9.33;;;3.23;;
2944;SDS011;1482;51.398;7.128;2023-08-06T02:55:35;4.80;;;3.37;;
2944;SDS011;1482;51.398;7.128;2023-08-06T02:58:01;6.53;;;3.90;;
2944;SDS011;1482;51.398;7.128;2023-08-06T03:00:26;6.73;;;3.53;;
2944;SDS011;1482;51.398;7.128;2023-08-06T03:02:52;4.63;;;3.80;;
2944;SDS011;1482;51.398;7.128;2023-08-06T03:05:18;3.83;;;3.30;;
2944;SDS011;1482;51.398;7.128;2023-08-06T03:07:44;3.97;;;3.57;;
2944;SDS011;1482;51.398;7.128;2023-08-06T03:10:09;3.87;;;3.57;;
2944;SDS011;1482;51.398;7.128;2023-08-06T03:12:35;4.23;;;3.77;;
2944;SDS011;1482;51.398;7.128;2023-08-06T03:15:00;3.87;;;3.57;;
2944;SDS011;1482;51.398;7.128;2023-08-06T03:17:26;6.30;;;4.30;;
2944;SDS011;1482;51.398;7.128;2023-08-06T03:19:51;4.80;;;3.70;;
2944;SDS011;1482;51.398;7.128;2023-08-06T03:22:17;7.20;;;3.80;;
2944;SDS011;1482;51.398;7.128;2023-08-06T03:24:42;4.20;;;3.80;;
2944;SDS011;1482;51.398;7.128;2023-08-06T03:27:08;4.13;;;3.10;;
2944;SDS011;1482;51.398;7.128;2023-08-06T03:29:33;3.77;;;3.23;;
2944;SDS011;1482;51.398;7.128;2023-08-06T03:31:59;3.23;;;2.97;;
2944;SDS011;1482;51.398;7.128;2023-08-06T03:34:24;4.53;;;3.80;;
2944;SDS011;1482;51.398;7.128;2023-08-06T03:36:50;3.70;;;3.40;;
2944;SDS011;1482;51.398;7.128;2023-08-06T03:39:16;5.07;;;4.20;;
2944;SDS011;1482;51.398;7.128;2023-08-06T03:41:41;4.53;;;4.13;;
2944;SDS011;1482;51.398;7.128;2023-08-06T03:44:07;6.00;;;4.23;;
2944;SDS011;1482;51.398;7.128;2023-08-06T03:46:32;6.60;;;3.73;;
2944;SDS011;1482;51.398;7.128;2023-08-06T03:48:59;4.10;;;3.43;;
2944;SDS011;1482;51.398;7.128;2023-08-06T03:51:25;4.40;;;4.00;;
2944;SDS011;1482;51.398;7.128;2023-08-06T03:53:50;4.37;;;3.40;;
2944;SDS011;1482;51.398;7.128;2023-08-06T03:56:16;4.00;;;3.00;;
2944;SDS011;1482;51.398;7.128;2023-08-06T03:58:41;4.57;;;3.63;;
2944;SDS011;1482;51.398;7.128;2023-08-06T04:01:07;3.73;;;3.43;;
2944;SDS011;1482;51.398;7.128;2023-08-06T04:03:32;4.03;;;3.47;;
2944;SDS011;1482;51.398;7.128;2023-08-06T04:05:58;4.10;;;3.20;;
2944;SDS011;1482;51.398;7.128;2023-08-06T04:08:23;3.63;;;3.33;;
2944;SDS011;1482;51.398;7.128;2023-08-06T04:10:49;4.37;;;3.97;;
2944;SDS011;1482;51.398;7.128;2023-08-06T04:13:18;4.87;;;3.40;;
2944;SDS011;1482;51.398;7.128;2023-08-06T04:15:45;6.07;;;4.00;;
2944;SDS011;1482;51.398;7.128;2023-08-06T04:18:10;3.67;;;3.43;;
2944;SDS011;1482;51.398;7.128;2023-08-06T04:20:46;6.80;;;4.27;;
2944;SDS011;1482;51.398;7.128;2023-08-06T04:23:14;4.60;;;3.73;;
2944;SDS011;1482;51.398;7.128;2023-08-06T04:25:39;4.50;;;3.57;;
2944;SDS011;1482;51.398;7.128;2023-08-06T04:28:07;4.33;;;3.50;;
2944;SDS011;1482;51.398;7.128;2023-08-06T04:30:32;4.03;;;3.67;;
2944;SDS011;1482;51.398;7.128;2023-08-06T04:32:58;5.90;;;3.30;;
2944;SDS011;1482;51.398;7.128;2023-08-06T04:35:24;3.97;;;3.67;;
2944;SDS011;1482;51.398;7.128;2023-08-06T04:37:49;6.27;;;3.67;;
2944;SDS011;1482;51.398;7.128;2023-08-06T04:40:15;8.60;;;3.63;;
2944;SDS011;1482;51.398;7.128;2023-08-06T04:42:40;4.63;;;2.90;;
2944;SDS011;1482;51.398;7.128;2023-08-06T04:45:06;4.37;;;3.37;;
2944;SDS011;1482;51.398;7.128;2023-08-06T04:47:32;3.33;;;2.40;;
2944;SDS011;1482;51.398;7.128;2023-08-06T04:49:58;12.63;;;3.50;;
2944;SDS011;1482;51.398;7.128;2023-08-06T04:52:23;3.80;;;3.07;;
2944;SDS011;1482;51.398;7.128;2023-08-06T04:54:52;3.90;;;3.50;;
2944;SDS011;1482;51.398;7.128;2023-08-06T04:57:18;3.67;;;3.07;;
2944;SDS011;1482;51.398;7.128;2023-08-06T04:59:43;5.83;;;3.00;;
2944;SDS011;1482;51.398;7.128;2023-08-06T05:02:09;5.23;;;2.97;;
2944;SDS011;1482;51.398;7.128;2023-08-06T05:04:34;4.33;;;2.70;;
2944;SDS011;1482;51.398;7.128;2023-08-06T05:07:00;5.13;;;2.87;;
2944;SDS011;1482;51.398;7.128;2023-08-06T05:09:25;4.67;;;2.37;;
2944;SDS011;1482;51.398;7.128;2023-08-06T05:11:51;2.73;;;2.50;;
2944;SDS011;1482;51.398;7.128;2023-08-06T05:14:16;4.97;;;4.10;;
2944;SDS011;1482;51.398;7.128;2023-08-06T05:16:42;4.00;;;2.70;;
2944;SDS011;1482;51.398;7.128;2023-08-06T05:19:07;2.70;;;2.33;;
2944;SDS011;1482;51.398;7.128;2023-08-06T05:21:33;3.00;;;2.40;;
2944;SDS011;1482;51.398;7.128;2023-08-06T05:23:58;3.47;;;3.07;;
2944;SDS011;1482;51.398;7.128;2023-08-06T05:26:24;3.23;;;2.20;;
2944;SDS011;1482;51.398;7.128;2023-08-06T05:28:49;3.10;;;2.47;;
2944;SDS011;1482;51.398;7.128;2023-08-06T05:31:15;5.00;;;2.70;;
2944;SDS011;1482;51.398;7.128;2023-08-06T05:33:40;5.20;;;2.67;;
2944;SDS011;1482;51.398;7.128;2023-08-06T05:36:06;7.20;;;3.00;;
2944;SDS011;1482;51.398;7.128;2023-08-06T05:38:31;12.93;;;4.00;;
2944;SDS011;1482;51.398;7.128;2023-08-06T05:40:57;6.57;;;3.10;;
2944;SDS011;1482;51.398;7.128;2023-08-06T05:43:22;5.57;;;3.10;;
2944;SDS011;1482;51.398;7.128;2023-08-06T05:45:51;4.70;;;2.40;;
2944;SDS011;1482;51.398;7.128;2023-08-06T05:48:17;2.60;;;2.40;;
2944;SDS011;1482;51.398;7.128;2023-08-06T05:50:42;9.27;;;3.57;;
2944;SDS011;1482;51.398;7.128;2023-08-06T05:53:08;3.10;;;2.70;;
2944;SDS011;1482;51.398;7.128;2023-08-06T05:55:34;2.83;;;2.63;;
2944;SDS011;1482;51.398;7.128;2023-08-06T05:58:00;3.17;;;2.87;;
2944;SDS011;1482;51.398;7.128;2023-08-06T06:00:26;3.00;;;2.73;;
2944;SDS011;1482;51.398;7.128;2023-08-06T06:02:51;5.90;;;3.10;;
2944;SDS011;1482;51.398;7.128;2023-08-06T06:05:17;3.30;;;3.00;;
2944;SDS011;1482;51.398;7.128;2023-08-06T06:07:42;3.20;;;2.80;;
2944;SDS011;1482;51.398;7.128;2023-08-06T06:10:08;2.80;;;2.60;;
2944;SDS011;1482;51.398;7.128;2023-08-06T06:12:34;3.03;;;2.73;;
2944;SDS011;1482;51.398;7.128;2023-08-06T06:15:00;3.13;;;2.80;;
2944;SDS011;1482;51.398;7.128;2023-08-06T06:17:26;3.33;;;3.03;;
2944;SDS011;1482;51.398;7.128;2023-08-06T06:19:54;2.80;;;2.60;;
2944;SDS011;1482;51.398;7.128;2023-08-06T06:22:20;5.37;;;3.50;;
2944;SDS011;1482;51.398;7.128;2023-08-06T06:24:45;9.70;;;3.70;;
2944;SDS011;1482;51.398;7.128;2023-08-06T06:27:11;2.80;;;2.57;;
2944;SDS011;1482;51.398;7.128;2023-08-06T06:29:36;4.00;;;2.63;;
2944;SDS011;1482;51.398;7.128;2023-08-06T06:32:02;4.60;;;2.23;;
2944;SDS011;1482;51.398;7.128;2023-08-06T06:34:28;5.73;;;3.00;;
2944;SDS011;1482;51.398;7.128;2023-08-06T06:36:53;6.37;;;2.53;;
2944;SDS011;1482;51.398;7.128;2023-08-06T06:39:19;5.50;;;2.43;;
2944;SDS011;1482;51.398;7.128;2023-08-06T06:41:45;5.13;;;2.67;;
2944;SDS011;1482;51.398;7.128;2023-08-06T06:44:11;4.53;;;2.60;;
2944;SDS011;1482;51.398;7.128;2023-08-06T06:46:36;1.97;;;1.80;;
2944;SDS011;1482;51.398;7.128;2023-08-06T06:49:02;1.90;;;1.80;;
2944;SDS011;1482;51.398;7.128;2023-08-06T06:51:27;2.53;;;2.33;;
2944;SDS011;1482;51.398;7.128;2023-08-06T06:53:53;3.53;;;1.97;;
2944;SDS011;1482;51.398;7.128;2023-08-06T06:56:18;3.33;;;1.90;;
2944;SDS011;1482;51.398;7.128;2023-08-06T06:58:44;10.03;;;2.63;;
2944;SDS011;1482;51.398;7.128;2023-08-06T07:01:10;2.83;;;1.97;;
2944;SDS011;1482;51.398;7.128;2023-08-06T07:03:37;1.60;;;1.47;;
2944;SDS011;1482;51.398;7.128;2023-08-06T07:06:02;3.83;;;2.03;;
2944;SDS011;1482;51.398;7.128;2023-08-06T07:08:28;4.07;;;2.23;;
2944;SDS011;1482;51.398;7.128;2023-08-06T07:11:01;2.50;;;2.30;;
2944;SDS011;1482;51.398;7.128;2023-08-06T07:13:31;2.77;;;2.50;;
2944;SDS011;1482;51.398;7.128;2023-08-06T07:15:57;3.00;;;2.63;;
2944;SDS011;1482;51.398;7.128;2023-08-06T07:18:23;3.77;;;2.30;;
2944;SDS011;1482;51.398;7.128;2023-08-06T07:20:49;4.60;;;2.60;;
2944;SDS011;1482;51.398;7.128;2023-08-06T07:23:15;3.20;;;2.50;;
2944;SDS011;1482;51.398;7.128;2023-08-06T07:25:41;2.50;;;2.30;;
2944;SDS011;1482;51.398;7.128;2023-08-06T07:28:06;4.23;;;2.57;;
2944;SDS011;1482;51.398;7.128;2023-08-06T07:30:32;2.40;;;2.23;;
2944;SDS011;1482;51.398;7.128;2023-08-06T07:32:57;3.37;;;3.07;;
2944;SDS011;1482;51.398;7.128;2023-08-06T07:35:23;3.83;;;2.33;;
2944;SDS011;1482;51.398;7.128;2023-08-06T07:37:48;5.50;;;2.57;;
2944;SDS011;1482;51.398;7.128;2023-08-06T07:40:14;2.40;;;2.20;;
2944;SDS011;1482;51.398;7.128;2023-08-06T07:42:39;3.50;;;2.10;;
2944;SDS011;1482;51.398;7.128;2023-08-06T07:45:06;2.93;;;1.73;;
2944;SDS011;1482;51.398;7.128;2023-08-06T07:47:32;2.17;;;1.73;;
2944;SDS011;1482;51.398;7.128;2023-08-06T07:49:58;2.80;;;1.77;;
2944;SDS011;1482;51.398;7.128;2023-08-06T07:52:24;3.23;;;1.90;;
2944;SDS011;1482;51.398;7.128;2023-08-06T07:54:50;2.23;;;1.97;;
2944;SDS011;1482;51.398;7.128;2023-08-06T07:57:15;2.90;;;2.60;;
2944;SDS011;1482;51.398;7.128;2023-08-06T07:59:41;2.53;;;2.10;;
2944;SDS011;1482;51.398;7.128;2023-08-06T08:02:07;4.30;;;2.43;;
2944;SDS011;1482;51.398;7.128;2023-08-06T08:04:32;2.20;;;2.00;;
2944;SDS011;1482;51.398;7.128;2023-08-06T08:06:58;2.20;;;1.90;;
2944;SDS011;1482;51.398;7.128;2023-08-06T08:09:23;3.97;;;2.17;;
2944;SDS011;1482;51.398;7.128;2023-08-06T08:11:49;2.47;;;2.20;;
2944;SDS011;1482;51.398;7.128;2023-08-06T08:14:15;2.37;;;2.17;;
2944;SDS011;1482;51.398;7.128;2023-08-06T08:16:41;4.03;;;2.10;;
2944;SDS011;1482;51.398;7.128;2023-08-06T08:19:06;3.40;;;1.93;;
2944;SDS011;1482;51.398;7.128;2023-08-06T08:21:32;3.07;;;2.10;;
2944;SDS011;1482;51.398;7.128;2023-08-06T08:23:59;2.23;;;2.07;;
2944;SDS011;1482;51.398;7.128;2023-08-06T08:26:25;4.10;;;2.00;;
2944;SDS011;1482;51.398;7.128;2023-08-06T08:28:52;2.37;;;1.80;;
2944;SDS011;1482;51.398;7.128;2023-08-06T08:31:18;2.13;;;2.03;;
2944;SDS011;1482;51.398;7.128;2023-08-06T08:33:44;4.43;;;1.97;;
2944;SDS011;1482;51.398;7.128;2023-08-06T08:36:09;2.27;;;2.07;;
2944;SDS011;1482;51.398;7.128;2023-08-06T08:38:35;3.00;;;2.70;;
2944;SDS011;1482;51.398;7.128;2023-08-06T08:41:01;5.10;;;1.83;;
2944;SDS011;1482;51.398;7.128;2023-08-06T08:43:27;1.90;;;1.80;;
2944;SDS011;1482;51.398;7.128;2023-08-06T08:45:54;3.27;;;1.63;;
2944;SDS011;1482;51.398;7.128;2023-08-06T08:48:26;2.27;;;2.07;;
2944;SDS011;1482;51.398;7.128;2023-08-06T08:50:52;2.43;;;1.93;;
2944;SDS011;1482;51.398;7.128;2023-08-06T08:53:18;2.40;;;1.97;;
2944;SDS011;1482;51.398;7.128;2023-08-06T08:55:47;2.00;;;1.90;;
2944;SDS011;1482;51.398;7.128;2023-08-06T08:58:13;3.00;;;1.97;;
2944;SDS011;1482;51.398;7.128;2023-08-06T09:00:40;3.57;;;2.50;;
2944;SDS011;1482;51.398;7.128;2023-08-06T09:03:07;5.63;;;2.63;;
2944;SDS011;1482;51.398;7.128;2023-08-06T09:05:33;2.13;;;1.83;;
2944;SDS011;1482;51.398;7.128;2023-08-06T09:08:02;2.30;;;2.10;;
2944;SDS011;1482;51.398;7.128;2023-08-06T09:10:29;2.43;;;2.23;;
2944;SDS011;1482;51.398;7.128;2023-08-06T09:12:55;2.57;;;2.37;;
2944;SDS011;1482;51.398;7.128;2023-08-06T09:15:25;2.17;;;2.07;;
2944;SDS011;1482;51.398;7.128;2023-08-06T09:17:54;3.57;;;2.10;;
2944;SDS011;1482;51.398;7.128;2023-08-06T09:20:20;3.40;;;2.47;;
2944;SDS011;1482;51.398;7.128;2023-08-06T09:22:46;2.90;;;2.20;;
2944;SDS011;1482;51.398;7.128;2023-08-06T09:25:13;2.50;;;2.37;;
2944;SDS011;1482;51.398;7.128;2023-08-06T09:27:46;3.20;;;2.47;;
2944;SDS011;1482;51.398;7.128;2023-08-06T09:30:12;2.77;;;2.57;;
2944;SDS011;1482;51.398;7.128;2023-08-06T09:32:55;5.17;;;2.33;;
2944;SDS011;1482;51.398;7.128;2023-08-06T09:35:21;4.73;;;3.03;;
2944;SDS011;1482;51.398;7.128;2023-08-06T09:37:46;5.07;;;3.23;;
2944;SDS011;1482;51.398;7.128;2023-08-06T09:40:25;3.03;;;2.70;;
2944;SDS011;1482;51.398;7.128;2023-08-06T09:42:57;4.43;;;4.03;;
2944;SDS011;1482;51.398;7.128;2023-08-06T09:45:31;4.10;;;2.93;;
2944;SDS011;1482;51.398;7.128;2023-08-06T09:47:58;2.60;;;2.40;;
2944;SDS011;1482;51.398;7.128;2023-08-06T09:50:26;6.93;;;2.50;;
2944;SDS011;1482;51.398;7.128;2023-08-06T09:52:55;3.10;;;2.70;;
2944;SDS011;1482;51.398;7.128;2023-08-06T09:55:21;3.33;;;3.03;;
2944;SDS011;1482;51.398;7.128;2023-08-06T09:57:47;2.90;;;2.70;;
2944;SDS011;1482;51.398;7.128;2023-08-06T10:00:15;3.20;;;2.90;;
2944;SDS011;1482;51.398;7.128;2023-08-06T10:02:41;5.90;;;3.57;;
2944;SDS011;1482;51.398;7.128;2023-08-06T10:05:08;3.90;;;3.50;;
2944;SDS011;1482;51.398;7.128;2023-08-06T10:07:34;3.50;;;2.90;;
2944;SDS011;1482;51.398;7.128;2023-08-06T10:10:00;5.13;;;3.20;;
2944;SDS011;1482;51.398;7.128;2023-08-06T10:12:28;4.37;;;3.97;;
2944;SDS011;1482;51.398;7.128;2023-08-06T10:14:58;4.00;;;3.60;;
2944;SDS011;1482;51.398;7.128;2023-08-06T10:17:26;5.53;;;3.77;;
2944;SDS011;1482;51.398;7.128;2023-08-06T10:19:53;4.07;;;3.70;;
2944;SDS011;1482;51.398;7.128;2023-08-06T10:22:21;4.17;;;3.50;;
2944;SDS011;1482;51.398;7.128;2023-08-06T10:24:52;3.50;;;3.20;;
2944;SDS011;1482;51.398;7.128;2023-08-06T10:27:22;4.07;;;3.70;;
2944;SDS011;1482;51.398;7.128;2023-08-06T10:32:54;3.20;;;2.90;;
2944;SDS011;1482;51.398;7.128;2023-08-06T10:35:38;7.60;;;3.90;;
2944;SDS011;1482;51.398;7.128;2023-08-06T10:38:10;3.27;;;2.90;;
2944;SDS011;1482;51.398;7.128;2023-08-06T10:40:37;2.83;;;2.63;;
2944;SDS011;1482;51.398;7.128;2023-08-06T10:43:05;4.20;;;3.90;;
2944;SDS011;1482;51.398;7.128;2023-08-06T10:45:36;4.87;;;3.07;;
2944;SDS011;1482;51.398;7.128;2023-08-06T10:48:03;4.30;;;3.90;;
2944;SDS011;1482;51.398;7.128;2023-08-06T10:50:29;3.23;;;3.00;;
2944;SDS011;1482;51.398;7.128;2023-08-06T10:52:56;4.17;;;3.87;;
2944;SDS011;1482;51.398;7.128;2023-08-06T10:55:23;4.60;;;4.20;;
2944;SDS011;1482;51.398;7.128;2023-08-06T10:57:50;3.57;;;3.37;;
2944;SDS011;1482;51.398;7.128;2023-08-06T11:00:16;3.73;;;3.23;;
2944;SDS011;1482;51.398;7.128;2023-08-06T11:02:41;6.53;;;4.50;;
2944;SDS011;1482;51.398;7.128;2023-08-06T11:05:09;5.87;;;4.90;;
2944;SDS011;1482;51.398;7.128;2023-08-06T11:07:35;5.37;;;4.73;;
2944;SDS011;1482;51.398;7.128;2023-08-06T11:10:07;6.67;;;5.00;;
2944;SDS011;1482;51.398;7.128;2023-08-06T11:12:34;5.57;;;5.17;;
2944;SDS011;1482;51.398;7.128;2023-08-06T11:15:00;5.60;;;5.10;;
2944;SDS011;1482;51.398;7.128;2023-08-06T11:17:27;8.37;;;6.27;;
2944;SDS011;1482;51.398;7.128;2023-08-06T11:19:54;7.43;;;6.50;;
2944;SDS011;1482;51.398;7.128;2023-08-06T11:22:20;7.13;;;6.43;;
2944;SDS011;1482;51.398;7.128;2023-08-06T11:24:46;8.53;;;7.60;;
2944;SDS011;1482;51.398;7.128;2023-08-06T11:27:13;7.60;;;6.90;;
2944;SDS011;1482;51.398;7.128;2023-08-06T11:29:40;11.63;;;6.17;;
2944;SDS011;1482;51.398;7.128;2023-08-06T11:32:07;7.97;;;7.37;;
2944;SDS011;1482;51.398;7.128;2023-08-06T11:34:33;8.60;;;7.90;;
2944;SDS011;1482;51.398;7.128;2023-08-06T11:36:58;7.80;;;5.80;;
2944;SDS011;1482;51.398;7.128;2023-08-06T11:39:24;3.87;;;3.57;;
2944;SDS011;1482;51.398;7.128;2023-08-06T11:41:50;7.03;;;2.70;;
2944;SDS011;1482;51.398;7.128;2023-08-06T11:44:18;4.50;;;2.07;;
2944;SDS011;1482;51.398;7.128;2023-08-06T11:46:54;4.17;;;2.20;;
2944;SDS011;1482;51.398;7.128;2023-08-06T11:49:40;2.47;;;1.70;;
2944;SDS011;1482;51.398;7.128;2023-08-06T11:52:24;3.50;;;2.40;;
2944;SDS011;1482;51.398;7.128;2023-08-06T11:57:29;6.73;;;2.47;;
2944;SDS011;1482;51.398;7.128;2023-08-06T11:59:57;3.30;;;1.77;;
2944;SDS011;1482;51.398;7.128;2023-08-06T12:02:27;3.93;;;1.70;;
2944;SDS011;1482;51.398;7.128;2023-08-06T12:05:12;4.50;;;2.43;;
2944;SDS011;1482;51.398;7.128;2023-08-06T12:07:45;1.70;;;1.53;;
2944;SDS011;1482;51.398;7.128;2023-08-06T12:10:14;7.23;;;1.97;;
2944;SDS011;1482;51.398;7.128;2023-08-06T12:12:41;3.47;;;1.30;;
2944;SDS011;1482;51.398;7.128;2023-08-06T12:15:07;1.77;;;1.40;;
2944;SDS011;1482;51.398;7.128;2023-08-06T12:17:34;1.90;;;1.70;;
2944;SDS011;1482;51.398;7.128;2023-08-06T12:20:00;2.13;;;1.93;;
2944;SDS011;1482;51.398;7.128;2023-08-06T12:22:27;2.20;;;1.93;;
2944;SDS011;1482;51.398;7.128;2023-08-06T12:24:52;2.47;;;2.10;;
2944;SDS011;1482;51.398;7.128;2023-08-06T12:27:18;1.73;;;1.63;;
2944;SDS011;1482;51.398;7.128;2023-08-06T12:29:44;7.47;;;3.17;;
2944;SDS011;1482;51.398;7.128;2023-08-06T12:32:11;1.80;;;1.70;;
2944;SDS011;1482;51.398;7.128;2023-08-06T12:34:41;3.53;;;1.90;;
2944;SDS011;1482;51.398;7.128;2023-08-06T12:37:07;1.57;;;1.40;;
2944;SDS011;1482;51.398;7.128;2023-08-06T12:39:33;2.03;;;1.53;;
2944;SDS011;1482;51.398;7.128;2023-08-06T12:42:04;1.90;;;1.40;;
2944;SDS011;1482;51.398;7.128;2023-08-06T12:44:30;1.47;;;1.37;;
2944;SDS011;1482;51.398;7.128;2023-08-06T12:46:57;1.20;;;1.10;;
2944;SDS011;1482;51.398;7.128;2023-08-06T12:49:22;1.30;;;1.10;;
2944;SDS011;1482;51.398;7.128;2023-08-06T12:51:49;1.53;;;1.43;;
2944;SDS011;1482;51.398;7.128;2023-08-06T12:54:19;1.37;;;1.27;;
2944;SDS011;1482;51.398;7.128;2023-08-06T12:56:46;1.87;;;1.77;;
2944;SDS011;1482;51.398;7.128;2023-08-06T12:59:13;2.43;;;2.20;;
2944;SDS011;1482;51.398;7.128;2023-08-06T13:01:40;1.53;;;1.43;;
2944;SDS011;1482;51.398;7.128;2023-08-06T13:04:05;2.27;;;2.07;;
2944;SDS011;1482;51.398;7.128;2023-08-06T13:06:31;2.00;;;1.90;;
2944;SDS011;1482;51.398;7.128;2023-08-06T13:09:02;3.20;;;2.10;;
2944;SDS011;1482;51.398;7.128;2023-08-06T13:11:37;3.50;;;2.40;;
2944;SDS011;1482;51.398;7.128;2023-08-06T13:14:04;2.60;;;2.40;;
2944;SDS011;1482;51.398;7.128;2023-08-06T13:16:35;2.60;;;2.40;;
2944;SDS011;1482;51.398;7.128;2023-08-06T13:19:02;7.60;;;2.90;;
2944;SDS011;1482;51.398;7.128;2023-08-06T13:21:31;3.13;;;2.93;;
2944;SDS011;1482;51.398;7.128;2023-08-06T13:24:16;3.60;;;3.00;;
2944;SDS011;1482;51.398;7.128;2023-08-06T13:26:42;3.63;;;3.33;;
2944;SDS011;1482;51.398;7.128;2023-08-06T13:29:07;4.90;;;3.23;;
2944;SDS011;1482;51.398;7.128;2023-08-06T13:31:33;3.30;;;3.00;;
2944;SDS011;1482;51.398;7.128;2023-08-06T13:33:58;2.80;;;2.60;;
2944;SDS011;1482;51.398;7.128;2023-08-06T13:36:25;3.10;;;2.53;;
2944;SDS011;1482;51.398;7.128;2023-08-06T13:38:51;2.93;;;2.73;;
2944;SDS011;1482;51.398;7.128;2023-08-06T13:41:17;3.17;;;2.70;;
2944;SDS011;1482;51.398;7.128;2023-08-06T13:43:43;2.63;;;2.43;;
2944;SDS011;1482;51.398;7.128;2023-08-06T13:46:11;2.80;;;2.47;;
2944;SDS011;1482;51.398;7.128;2023-08-06T13:48:42;2.50;;;2.30;;
2944;SDS011;1482;51.398;7.128;2023-08-06T13:51:08;3.30;;;3.00;;
2944;SDS011;1482;51.398;7.128;2023-08-06T13:53:35;3.07;;;2.87;;
2944;SDS011;1482;51.398;7.128;2023-08-06T13:56:00;3.17;;;2.90;;
2944;SDS011;1482;51.398;7.128;2023-08-06T13:58:26;2.67;;;2.47;;
2944;SDS011;1482;51.398;7.128;2023-08-06T14:00:52;3.47;;;3.17;;
2944;SDS011;1482;51.398;7.128;2023-08-06T14:03:19;3.00;;;2.80;;
2944;SDS011;1482;51.398;7.128;2023-08-06T14:05:45;3.67;;;2.80;;
2944;SDS011;1482;51.398;7.128;2023-08-06T14:08:10;9.23;;;3.33;;
2944;SDS011;1482;51.398;7.128;2023-08-06T14:10:36;3.20;;;3.00;;
2944;SDS011;1482;51.398;7.128;2023-08-06T14:13:02;5.20;;;3.20;;
2944;SDS011;1482;51.398;7.128;2023-08-06T14:15:27;5.43;;;3.50;;
2944;SDS011;1482;51.398;7.128;2023-08-06T14:17:53;4.00;;;3.50;;
2944;SDS011;1482;51.398;7.128;2023-08-06T14:20:18;4.27;;;3.87;;
2944;SDS011;1482;51.398;7.128;2023-08-06T14:22:44;4.07;;;3.73;;
2944;SDS011;1482;51.398;7.128;2023-08-06T14:25:09;4.63;;;4.07;;
2944;SDS011;1482;51.398;7.128;2023-08-06T14:27:35;3.60;;;3.33;;
2944;SDS011;1482;51.398;7.128;2023-08-06T14:30:01;4.83;;;4.40;;
2944;SDS011;1482;51.398;7.128;2023-08-06T14:32:28;4.27;;;3.87;;
2944;SDS011;1482;51.398;7.128;2023-08-06T14:34:54;4.50;;;4.10;;
2944;SDS011;1482;51.398;7.128;2023-08-06T14:37:19;4.40;;;4.00;;
2944;SDS011;1482;51.398;7.128;2023-08-06T14:39:45;5.10;;;4.60;;
2944;SDS011;1482;51.398;7.128;2023-08-06T14:42:10;5.63;;;4.27;;
2944;SDS011;1482;51.398;7.128;2023-08-06T14:44:36;5.97;;;5.37;;
2944;SDS011;1482;51.398;7.128;2023-08-06T14:47:01;4.60;;;4.03;;
2944;SDS011;1482;51.398;7.128;2023-08-06T14:49:27;5.83;;;4.23;;
2944;SDS011;1482;51.398;7.128;2023-08-06T14:51:52;5.03;;;4.63;;
2944;SDS011;1482;51.398;7.128;2023-08-06T14:54:18;5.00;;;4.50;;
2944;SDS011;1482;51.398;7.128;2023-08-06T14:56:43;4.80;;;4.40;;
2944;SDS011;1482;51.398;7.128;2023-08-06T14:59:09;4.50;;;4.20;;
2944;SDS011;1482;51.398;7.128;2023-08-06T15:01:34;5.00;;;4.37;;
2944;SDS011;1482;51.398;7.128;2023-08-06T15:04:00;5.10;;;4.20;;
2944;SDS011;1482;51.398;7.128;2023-08-06T15:06:25;4.43;;;4.10;;
2944;SDS011;1482;51.398;7.128;2023-08-06T15:08:51;5.37;;;4.73;;
2944;SDS011;1482;51.398;7.128;2023-08-06T15:11:17;7.40;;;6.70;;
2944;SDS011;1482;51.398;7.128;2023-08-06T15:13:42;4.90;;;4.50;;
2944;SDS011;1482;51.398;7.128;2023-08-06T15:16:08;3.90;;;3.57;;
2944;SDS011;1482;51.398;7.128;2023-08-06T15:18:33;4.40;;;4.00;;
2944;SDS011;1482;51.398;7.128;2023-08-06T15:20:59;4.50;;;4.10;;
2944;SDS011;1482;51.398;7.128;2023-08-06T15:23:25;3.10;;;2.90;;
2944;SDS011;1482;51.398;7.128;2023-08-06T15:25:50;3.43;;;3.23;;